sensor_id;sensor_type;location;lat;lon;timestamp;pressure;altitude;pressure_sealevel;temperature;humidity
66762;BME280;53672;48.176;16.338;2022-10-15T00:00:40;99030.03;;;9.97;100.00
66762;BME280;53672;48.176;16.338;2022-10-15T00:05:42;99023.63;;;9.88;100.00
66762;BME280;53672;48.176;16.338;2022-10-15T00:10:42;99011.81;;;9.84;100.00
66762;BME280;53672;48.176;16.338;2022-10-15T00:15:43;99008.59;;;9.82;100.00
66762;BME280;53672;48.176;16.338;2022-10-15T00:20:45;99017.22;;;9.79;100.00
66762;BME280;53672;48.176;16.338;2022-10-15T00:25:45;99009.69;;;9.76;100.00
66762;BME280;53672;48.176;16.338;2022-10-15T00:30:46;99000.28;;;9.74;100.00
66762;BME280;53672;48.176;16.338;2022-10-15T00:35:57;98987.38;;;9.76;100.00
66762;BME280;53672;48.176;16.338;2022-10-15T00:40:58;98978.44;;;9.80;100.00
66762;BME280;53672;48.176;16.338;2022-10-15T00:45:58;98972.50;;;9.83;100.00
66762;BME280;53672;48.176;16.338;2022-10-15T00:51:02;98969.81;;;9.83;100.00
66762;BME280;53672;48.176;16.338;2022-10-15T00:56:04;98967.69;;;9.80;100.00
66762;BME280;53672;48.176;16.338;2022-10-15T01:01:05;98966.88;;;9.80;100.00
66762;BME280;53672;48.176;16.338;2022-10-15T01:06:07;98962.06;;;9.77;100.00
66762;BME280;53672;48.176;16.338;2022-10-15T01:11:17;98963.19;;;9.71;100.00
66762;BME280;53672;48.176;16.338;2022-10-15T01:16:32;98945.97;;;9.66;100.00
66762;BME280;53672;48.176;16.338;2022-10-15T01:21:40;98939.78;;;9.66;100.00
66762;BME280;53672;48.176;16.338;2022-10-15T01:27:13;98931.69;;;9.71;100.00
66762;BME280;53672;48.176;16.338;2022-10-15T01:32:22;98926.81;;;9.78;100.00
66762;BME280;53672;48.176;16.338;2022-10-15T01:37:30;98923.53;;;9.86;100.00
66762;BME280;53672;48.176;16.338;2022-10-15T01:42:39;98925.91;;;9.93;100.00
66762;BME280;53672;48.176;16.338;2022-10-15T01:47:47;98928.84;;;9.96;100.00
66762;BME280;53672;48.176;16.338;2022-10-15T01:52:49;98920.69;;;10.01;100.00
66762;BME280;53672;48.176;16.338;2022-10-15T01:57:51;98913.66;;;10.05;100.00
66762;BME280;53672;48.176;16.338;2022-10-15T02:02:59;98905.03;;;10.08;100.00
66762;BME280;53672;48.176;16.338;2022-10-15T02:08:06;98899.88;;;10.12;100.00
66762;BME280;53672;48.176;16.338;2022-10-15T02:13:15;98893.16;;;10.14;100.00
66762;BME280;53672;48.176;16.338;2022-10-15T02:18:24;98881.22;;;10.21;100.00
66762;BME280;53672;48.176;16.338;2022-10-15T02:23:32;98879.06;;;10.23;100.00
66762;BME280;53672;48.176;16.338;2022-10-15T02:28:37;98880.94;;;10.27;100.00
66762;BME280;53672;48.176;16.338;2022-10-15T02:33:40;98871.75;;;10.28;100.00
66762;BME280;53672;48.176;16.338;2022-10-15T02:38:43;98868.19;;;10.33;100.00
66762;BME280;53672;48.176;16.338;2022-10-15T02:43:46;98864.66;;;10.37;100.00
66762;BME280;53672;48.176;16.338;2022-10-15T02:48:47;98860.59;;;10.40;100.00
66762;BME280;53672;48.176;16.338;2022-10-15T02:53:48;98863.22;;;10.45;100.00
66762;BME280;53672;48.176;16.338;2022-10-15T02:58:48;98851.31;;;10.51;100.00
66762;BME280;53672;48.176;16.338;2022-10-15T03:03:50;98847.75;;;10.55;100.00
66762;BME280;53672;48.176;16.338;2022-10-15T03:08:51;98843.69;;;10.58;100.00
66762;BME280;53672;48.176;16.338;2022-10-15T03:13:51;98841.38;;;10.70;100.00
66762;BME280;53672;48.176;16.338;2022-10-15T03:18:53;98830.00;;;10.73;100.00
66762;BME280;53672;48.176;16.338;2022-10-15T03:23:53;98827.50;;;10.82;100.00
66762;BME280;53672;48.176;16.338;2022-10-15T03:28:54;98828.28;;;10.82;100.00
66762;BME280;53672;48.176;16.338;2022-10-15T03:33:56;98831.50;;;10.84;100.00
66762;BME280;53672;48.176;16.338;2022-10-15T03:38:56;98821.31;;;10.81;100.00
66762;BME280;53672;48.176;16.338;2022-10-15T03:43:59;98815.25;;;10.89;100.00
66762;BME280;53672;48.176;16.338;2022-10-15T03:49:01;98811.47;;;10.90;100.00
66762;BME280;53672;48.176;16.338;2022-10-15T03:54:02;98824.66;;;10.92;100.00
66762;BME280;53672;48.176;16.338;2022-10-15T03:59:03;98832.44;;;10.93;100.00
66762;BME280;53672;48.176;16.338;2022-10-15T04:04:04;98824.31;;;10.98;100.00
66762;BME280;53672;48.176;16.338;2022-10-15T04:09:05;98818.91;;;10.98;100.00
66762;BME280;53672;48.176;16.338;2022-10-15T04:14:05;98814.03;;;11.00;100.00
66762;BME280;53672;48.176;16.338;2022-10-15T04:19:07;98815.63;;;11.01;100.00
66762;BME280;53672;48.176;16.338;2022-10-15T04:24:08;98811.84;;;11.02;100.00
66762;BME280;53672;48.176;16.338;2022-10-15T04:29:08;98804.34;;;11.18;100.00
66762;BME280;53672;48.176;16.338;2022-10-15T04:34:10;98796.97;;;11.24;100.00
66762;BME280;53672;48.176;16.338;2022-10-15T04:39:11;98794.69;;;11.31;100.00
66762;BME280;53672;48.176;16.338;2022-10-15T04:44:11;98798.94;;;11.37;100.00
66762;BME280;53672;48.176;16.338;2022-10-15T04:49:13;98811.31;;;11.56;100.00
66762;BME280;53672;48.176;16.338;2022-10-15T04:54:14;98818.91;;;11.73;100.00
66762;BME280;53672;48.176;16.338;2022-10-15T04:59:14;98818.13;;;11.86;99.43
66762;BME280;53672;48.176;16.338;2022-10-15T05:04:16;98814.63;;;11.86;99.50
66762;BME280;53672;48.176;16.338;2022-10-15T05:09:17;98818.66;;;11.88;99.30
66762;BME280;53672;48.176;16.338;2022-10-15T05:14:17;98818.22;;;11.81;100.00
66762;BME280;53672;48.176;16.338;2022-10-15T05:19:19;98815.53;;;11.81;100.00
66762;BME280;53672;48.176;16.338;2022-10-15T05:24:20;98817.13;;;11.82;100.00
66762;BME280;53672;48.176;16.338;2022-10-15T05:29:20;98822.22;;;11.84;100.00
66762;BME280;53672;48.176;16.338;2022-10-15T05:34:22;98815.84;;;11.93;100.00
66762;BME280;53672;48.176;16.338;2022-10-15T05:39:22;98820.16;;;11.94;100.00
66762;BME280;53672;48.176;16.338;2022-10-15T05:44:23;98823.94;;;11.93;100.00
66762;BME280;53672;48.176;16.338;2022-10-15T05:49:25;98827.06;;;12.00;100.00
66762;BME280;53672;48.176;16.338;2022-10-15T05:54:25;98823.19;;;12.06;100.00
66762;BME280;53672;48.176;16.338;2022-10-15T05:59:26;98829.50;;;12.02;100.00
66762;BME280;53672;48.176;16.338;2022-10-15T06:04:28;98837.38;;;11.98;100.00
66762;BME280;53672;48.176;16.338;2022-10-15T06:09:28;98827.06;;;12.00;100.00
66762;BME280;53672;48.176;16.338;2022-10-15T06:14:29;98836.69;;;12.06;100.00
66762;BME280;53672;48.176;16.338;2022-10-15T06:19:31;98841.50;;;12.09;100.00
66762;BME280;53672;48.176;16.338;2022-10-15T06:24:31;98841.81;;;12.08;100.00
66762;BME280;53672;48.176;16.338;2022-10-15T06:29:31;98858.22;;;12.11;100.00
66762;BME280;53672;48.176;16.338;2022-10-15T06:34:33;98861.94;;;12.15;100.00
66762;BME280;53672;48.176;16.338;2022-10-15T06:39:34;98858.75;;;12.27;100.00
66762;BME280;53672;48.176;16.338;2022-10-15T06:44:34;98861.75;;;12.26;100.00
66762;BME280;53672;48.176;16.338;2022-10-15T06:49:36;98864.75;;;12.24;100.00
66762;BME280;53672;48.176;16.338;2022-10-15T06:54:37;98874.03;;;12.18;100.00
66762;BME280;53672;48.176;16.338;2022-10-15T06:59:37;98873.53;;;12.16;100.00
66762;BME280;53672;48.176;16.338;2022-10-15T07:04:39;98883.56;;;12.15;100.00
66762;BME280;53672;48.176;16.338;2022-10-15T07:09:39;98882.34;;;12.22;100.00
66762;BME280;53672;48.176;16.338;2022-10-15T07:14:40;98880.56;;;12.31;100.00
66762;BME280;53672;48.176;16.338;2022-10-15T07:19:42;98883.00;;;12.46;100.00
66762;BME280;53672;48.176;16.338;2022-10-15T07:24:42;98882.28;;;12.54;100.00
66762;BME280;53672;48.176;16.338;2022-10-15T07:29:43;98890.19;;;12.50;100.00
66762;BME280;53672;48.176;16.338;2022-10-15T07:34:45;98885.81;;;12.54;100.00
66762;BME280;53672;48.176;16.338;2022-10-15T07:39:45;98888.50;;;12.54;100.00
66762;BME280;53672;48.176;16.338;2022-10-15T07:44:45;98895.22;;;12.57;100.00
66762;BME280;53672;48.176;16.338;2022-10-15T07:49:47;98898.44;;;12.73;100.00
66762;BME280;53672;48.176;16.338;2022-10-15T07:54:48;98896.34;;;12.83;100.00
66762;BME280;53672;48.176;16.338;2022-10-15T07:59:48;98908.47;;;12.86;100.00
66762;BME280;53672;48.176;16.338;2022-10-15T08:04:50;98903.47;;;12.93;100.00
66762;BME280;53672;48.176;16.338;2022-10-15T08:09:51;98911.78;;;12.96;100.00
66762;BME280;53672;48.176;16.338;2022-10-15T08:14:51;98909.56;;;12.98;100.00
66762;BME280;53672;48.176;16.338;2022-10-15T08:19:53;98913.47;;;13.06;100.00
66762;BME280;53672;48.176;16.338;2022-10-15T08:24:54;98926.53;;;13.17;100.00
66762;BME280;53672;48.176;16.338;2022-10-15T08:29:54;98923.09;;;13.26;100.00
66762;BME280;53672;48.176;16.338;2022-10-15T08:34:56;98926.31;;;13.41;100.00
66762;BME280;53672;48.176;16.338;2022-10-15T08:39:57;98921.84;;;13.59;100.00
66762;BME280;53672;48.176;16.338;2022-10-15T08:44:59;98927.66;;;13.66;100.00
66762;BME280;53672;48.176;16.338;2022-10-15T08:50:09;98937.66;;;13.79;100.00
66762;BME280;53672;48.176;16.338;2022-10-15T08:55:13;98935.03;;;13.74;100.00
66762;BME280;53672;48.176;16.338;2022-10-15T09:00:17;98936.34;;;13.77;100.00
66762;BME280;53672;48.176;16.338;2022-10-15T09:05:31;98937.56;;;13.70;100.00
66762;BME280;53672;48.176;16.338;2022-10-15T09:10:38;98931.22;;;13.75;100.00
66762;BME280;53672;48.176;16.338;2022-10-15T09:15:47;98943.81;;;13.93;100.00
66762;BME280;53672;48.176;16.338;2022-10-15T09:20:52;98947.94;;;14.13;100.00
66762;BME280;53672;48.176;16.338;2022-10-15T09:25:59;98944.81;;;14.19;100.00
66762;BME280;53672;48.176;16.338;2022-10-15T09:31:01;98942.25;;;14.37;100.00
66762;BME280;53672;48.176;16.338;2022-10-15T09:36:16;98950.47;;;14.54;100.00
66762;BME280;53672;48.176;16.338;2022-10-15T09:41:24;98959.34;;;14.68;100.00
66762;BME280;53672;48.176;16.338;2022-10-15T09:46:28;98961.72;;;14.69;100.00
66762;BME280;53672;48.176;16.338;2022-10-15T09:51:34;98972.91;;;14.46;100.00
66762;BME280;53672;48.176;16.338;2022-10-15T09:56:38;98976.53;;;14.19;100.00
66762;BME280;53672;48.176;16.338;2022-10-15T10:01:56;98969.03;;;14.16;100.00
66762;BME280;53672;48.176;16.338;2022-10-15T10:07:01;98971.19;;;14.28;100.00
66762;BME280;53672;48.176;16.338;2022-10-15T10:12:04;98972.47;;;14.30;100.00
66762;BME280;53672;48.176;16.338;2022-10-15T10:17:14;98964.13;;;14.40;100.00
66762;BME280;53672;48.176;16.338;2022-10-15T10:22:18;98959.44;;;14.54;100.00
66762;BME280;53672;48.176;16.338;2022-10-15T10:27:21;98962.72;;;14.73;98.66
66762;BME280;53672;48.176;16.338;2022-10-15T10:32:26;98966.97;;;14.66;99.64
66762;BME280;53672;48.176;16.338;2022-10-15T10:37:39;98961.72;;;14.69;98.64
66762;BME280;53672;48.176;16.338;2022-10-15T10:42:40;98964.97;;;14.80;97.96
66762;BME280;53672;48.176;16.338;2022-10-15T10:47:41;98962.34;;;14.97;96.69
66762;BME280;53672;48.176;16.338;2022-10-15T10:52:43;98962.75;;;15.21;95.78
66762;BME280;53672;48.176;16.338;2022-10-15T10:57:49;98966.50;;;15.43;94.19
66762;BME280;53672;48.176;16.338;2022-10-15T11:02:50;98978.16;;;15.43;91.51
66762;BME280;53672;48.176;16.338;2022-10-15T11:07:59;98979.44;;;15.46;91.85
66762;BME280;53672;48.176;16.338;2022-10-15T11:13:10;98976.69;;;14.58;94.50
66762;BME280;53672;48.176;16.338;2022-10-15T11:23:59;98968.28;;;13.66;100.00
66762;BME280;53672;48.176;16.338;2022-10-15T11:29:10;98971.22;;;13.56;100.00
66762;BME280;53672;48.176;16.338;2022-10-15T11:34:24;98979.22;;;13.47;100.00
66762;BME280;53672;48.176;16.338;2022-10-15T11:39:48;98963.78;;;13.48;100.00
66762;BME280;53672;48.176;16.338;2022-10-15T11:45:02;98966.38;;;13.53;100.00
66762;BME280;53672;48.176;16.338;2022-10-15T11:50:16;98958.63;;;13.60;100.00
66762;BME280;53672;48.176;16.338;2022-10-15T11:55:22;98969.69;;;13.50;100.00
66762;BME280;53672;48.176;16.338;2022-10-15T12:00:30;98965.22;;;13.32;100.00
66762;BME280;53672;48.176;16.338;2022-10-15T12:05:34;98962.81;;;13.30;100.00
66762;BME280;53672;48.176;16.338;2022-10-15T12:10:53;98959.91;;;13.27;100.00
66762;BME280;53672;48.176;16.338;2022-10-15T12:16:01;98967.59;;;13.33;100.00
66762;BME280;53672;48.176;16.338;2022-10-15T12:21:28;98974.72;;;13.43;100.00
66762;BME280;53672;48.176;16.338;2022-10-15T12:26:32;98971.59;;;13.36;100.00
66762;BME280;53672;48.176;16.338;2022-10-15T12:31:45;98975.13;;;13.36;100.00
66762;BME280;53672;48.176;16.338;2022-10-15T12:36:58;98974.41;;;13.44;100.00
66762;BME280;53672;48.176;16.338;2022-10-15T12:42:00;98973.00;;;13.47;100.00
66762;BME280;53672;48.176;16.338;2022-10-15T12:47:01;98960.59;;;13.46;100.00
66762;BME280;53672;48.176;16.338;2022-10-15T12:57:57;98975.22;;;13.45;100.00
66762;BME280;53672;48.176;16.338;2022-10-15T13:08:24;98969.41;;;13.51;100.00
66762;BME280;53672;48.176;16.338;2022-10-15T13:13:28;98971.59;;;13.49;100.00
66762;BME280;53672;48.176;16.338;2022-10-15T13:18:30;98969.28;;;13.43;100.00
66762;BME280;53672;48.176;16.338;2022-10-15T13:23:32;98968.19;;;13.44;100.00
66762;BME280;53672;48.176;16.338;2022-10-15T13:28:38;98965.28;;;13.40;100.00
66762;BME280;53672;48.176;16.338;2022-10-15T13:33:40;98969.22;;;13.34;100.00
66762;BME280;53672;48.176;16.338;2022-10-15T13:38:41;98967.81;;;13.37;100.00
66762;BME280;53672;48.176;16.338;2022-10-15T13:43:51;98979.72;;;13.36;100.00
66762;BME280;53672;48.176;16.338;2022-10-15T13:48:56;98975.25;;;13.31;100.00
66762;BME280;53672;48.176;16.338;2022-10-15T13:53:57;98973.03;;;13.33;100.00
66762;BME280;53672;48.176;16.338;2022-10-15T13:59:00;98981.75;;;13.30;100.00
66762;BME280;53672;48.176;16.338;2022-10-15T14:04:02;98986.88;;;13.32;100.00
66762;BME280;53672;48.176;16.338;2022-10-15T14:09:12;98996.56;;;13.33;100.00
66762;BME280;53672;48.176;16.338;2022-10-15T14:14:32;99004.69;;;13.33;100.00
66762;BME280;53672;48.176;16.338;2022-10-15T14:19:35;99010.13;;;13.33;100.00
66762;BME280;53672;48.176;16.338;2022-10-15T14:24:38;99004.69;;;13.33;100.00
66762;BME280;53672;48.176;16.338;2022-10-15T14:29:41;99010.72;;;13.30;100.00
66762;BME280;53672;48.176;16.338;2022-10-15T14:34:43;99015.63;;;13.28;100.00
66762;BME280;53672;48.176;16.338;2022-10-15T14:39:46;99024.38;;;13.25;100.00
66762;BME280;53672;48.176;16.338;2022-10-15T14:44:48;99017.41;;;13.18;100.00
66762;BME280;53672;48.176;16.338;2022-10-15T14:49:51;99024.56;;;13.14;100.00
66762;BME280;53672;48.176;16.338;2022-10-15T14:54:59;99018.34;;;13.14;100.00
66762;BME280;53672;48.176;16.338;2022-10-15T15:00:04;99025.16;;;13.11;100.00
66762;BME280;53672;48.176;16.338;2022-10-15T15:05:13;99037.72;;;13.02;100.00
66762;BME280;53672;48.176;16.338;2022-10-15T15:10:17;99028.19;;;13.05;100.00
66762;BME280;53672;48.176;16.338;2022-10-15T15:15:20;99028.50;;;13.03;100.00
66762;BME280;53672;48.176;16.338;2022-10-15T15:20:22;99045.63;;;12.99;100.00
66762;BME280;53672;48.176;16.338;2022-10-15T15:25:27;99042.94;;;12.99;100.00
66762;BME280;53672;48.176;16.338;2022-10-15T15:30:30;99049.75;;;12.96;100.00
66762;BME280;53672;48.176;16.338;2022-10-15T15:35:34;99044.06;;;12.98;100.00
66762;BME280;53672;48.176;16.338;2022-10-15T15:40:36;99045.63;;;12.99;100.00
66762;BME280;53672;48.176;16.338;2022-10-15T15:45:38;99052.66;;;13.00;100.00
66762;BME280;53672;48.176;16.338;2022-10-15T15:50:38;99057.19;;;13.04;100.00
66762;BME280;53672;48.176;16.338;2022-10-15T15:55:39;99062.53;;;13.09;100.00
66762;BME280;53672;48.176;16.338;2022-10-15T16:00:41;99060.34;;;13.11;100.00
66762;BME280;53672;48.176;16.338;2022-10-15T16:05:41;99062.53;;;13.09;100.00
66762;BME280;53672;48.176;16.338;2022-10-15T16:10:42;99079.28;;;13.11;100.00
66762;BME280;53672;48.176;16.338;2022-10-15T16:15:44;99084.69;;;13.11;100.00
66762;BME280;53672;48.176;16.338;2022-10-15T16:20:44;99091.69;;;13.12;100.00
66762;BME280;53672;48.176;16.338;2022-10-15T16:25:45;99096.00;;;13.13;100.00
66762;BME280;53672;48.176;16.338;2022-10-15T16:30:47;99111.97;;;13.15;100.00
66762;BME280;53672;48.176;16.338;2022-10-15T16:35:50;99115.16;;;13.17;100.00
66762;BME280;53672;48.176;16.338;2022-10-15T16:40:51;99126.78;;;13.17;100.00
66762;BME280;53672;48.176;16.338;2022-10-15T16:45:54;99138.22;;;13.14;100.00
66762;BME280;53672;48.176;16.338;2022-10-15T16:50:59;99140.59;;;13.16;100.00
66762;BME280;53672;48.176;16.338;2022-10-15T16:56:00;99149.53;;;13.16;100.00
66762;BME280;53672;48.176;16.338;2022-10-15T17:01:04;99154.66;;;13.18;100.00
66762;BME280;53672;48.176;16.338;2022-10-15T17:06:07;99158.25;;;13.13;100.00
66762;BME280;53672;48.176;16.338;2022-10-15T17:11:09;99160.47;;;13.11;100.00
66762;BME280;53672;48.176;16.338;2022-10-15T17:16:13;99166.66;;;13.12;100.00
66762;BME280;53672;48.176;16.338;2022-10-15T17:21:16;99168.88;;;13.10;100.00
66762;BME280;53672;48.176;16.338;2022-10-15T17:26:19;99172.94;;;13.07;100.00
66762;BME280;53672;48.176;16.338;2022-10-15T17:31:23;99180.25;;;13.07;100.00
66762;BME280;53672;48.176;16.338;2022-10-15T17:36:25;99186.25;;;13.04;100.00
66762;BME280;53672;48.176;16.338;2022-10-15T17:41:28;99191.66;;;13.04;100.00
66762;BME280;53672;48.176;16.338;2022-10-15T17:46:31;99204.06;;;13.05;100.00
66762;BME280;53672;48.176;16.338;2022-10-15T17:51:32;99199.25;;;13.02;100.00
66762;BME280;53672;48.176;16.338;2022-10-15T17:56:34;99203.84;;;13.01;100.00
66762;BME280;53672;48.176;16.338;2022-10-15T18:01:38;99214.69;;;13.01;100.00
66762;BME280;53672;48.176;16.338;2022-10-15T18:06:42;99215.22;;;13.03;100.00
66762;BME280;53672;48.176;16.338;2022-10-15T18:11:42;99215.22;;;13.03;100.00
66762;BME280;53672;48.176;16.338;2022-10-15T18:16:45;99209.28;;;13.01;100.00
66762;BME280;53672;48.176;16.338;2022-10-15T18:21:45;99219.81;;;13.03;100.00
66762;BME280;53672;48.176;16.338;2022-10-15T18:26:47;99228.75;;;13.03;100.00
66762;BME280;53672;48.176;16.338;2022-10-15T18:31:49;99223.31;;;13.03;100.00
66762;BME280;53672;48.176;16.338;2022-10-15T18:36:50;99226.31;;;13.02;100.00
66762;BME280;53672;48.176;16.338;2022-10-15T18:41:51;99227.94;;;13.03;100.00
66762;BME280;53672;48.176;16.338;2022-10-15T18:46:54;99220.09;;;13.01;100.00
66762;BME280;53672;48.176;16.338;2022-10-15T18:51:54;99221.94;;;13.06;100.00
66762;BME280;53672;48.176;16.338;2022-10-15T18:56:56;99225.50;;;13.01;100.00
66762;BME280;53672;48.176;16.338;2022-10-15T19:01:58;99226.91;;;12.99;100.00
66762;BME280;53672;48.176;16.338;2022-10-15T19:06:59;99234.81;;;12.95;100.00
66762;BME280;53672;48.176;16.338;2022-10-15T19:12:00;99233.56;;;12.88;100.00
66762;BME280;53672;48.176;16.338;2022-10-15T19:17:02;99238.19;;;12.87;100.00
66762;BME280;53672;48.176;16.338;2022-10-15T19:22:02;99251.19;;;12.85;100.00
66762;BME280;53672;48.176;16.338;2022-10-15T19:27:03;99251.19;;;12.85;100.00
66762;BME280;53672;48.176;16.338;2022-10-15T19:32:05;99266.81;;;12.88;100.00
66762;BME280;53672;48.176;16.338;2022-10-15T19:37:05;99266.31;;;12.86;100.00
66762;BME280;53672;48.176;16.338;2022-10-15T19:42:06;99264.44;;;12.87;100.00
66762;BME280;53672;48.176;16.338;2022-10-15T19:47:10;99251.72;;;12.87;100.00
66762;BME280;53672;48.176;16.338;2022-10-15T19:52:11;99261.72;;;12.87;100.00
66762;BME280;53672;48.176;16.338;2022-10-15T19:57:12;99261.50;;;12.83;100.00
66762;BME280;53672;48.176;16.338;2022-10-15T20:02:14;99257.97;;;12.83;100.00
66762;BME280;53672;48.176;16.338;2022-10-15T20:07:15;99268.59;;;12.79;100.00
66762;BME280;53672;48.176;16.338;2022-10-15T20:12:15;99268.09;;;12.77;100.00
66762;BME280;53672;48.176;16.338;2022-10-15T20:17:17;99281.59;;;12.77;100.00
66762;BME280;53672;48.176;16.338;2022-10-15T20:22:18;99274.56;;;12.76;100.00
66762;BME280;53672;48.176;16.338;2022-10-15T20:27:19;99275.16;;;12.73;100.00
66762;BME280;53672;48.176;16.338;2022-10-15T20:32:20;99282.81;;;12.66;100.00
66762;BME280;53672;48.176;16.338;2022-10-15T20:37:21;99282.66;;;12.57;100.00
66762;BME280;53672;48.176;16.338;2022-10-15T20:42:21;99287.69;;;12.45;100.00
66762;BME280;53672;48.176;16.338;2022-10-15T20:47:23;99293.19;;;12.35;100.00
66762;BME280;53672;48.176;16.338;2022-10-15T20:52:24;99294.06;;;12.31;100.00
66762;BME280;53672;48.176;16.338;2022-10-15T20:57:24;99290.25;;;12.32;100.00
66762;BME280;53672;48.176;16.338;2022-10-15T21:02:26;99294.59;;;12.33;100.00
66762;BME280;53672;48.176;16.338;2022-10-15T21:07:27;99304.88;;;12.31;100.00
66762;BME280;53672;48.176;16.338;2022-10-15T21:12:27;99321.94;;;12.26;100.00
66762;BME280;53672;48.176;16.338;2022-10-15T21:17:29;99310.69;;;12.19;100.00
66762;BME280;53672;48.176;16.338;2022-10-15T21:22:30;99324.00;;;12.10;100.00
66762;BME280;53672;48.176;16.338;2022-10-15T21:27:30;99319.91;;;12.13;100.00
66762;BME280;53672;48.176;16.338;2022-10-15T21:32:32;99319.63;;;12.14;100.00
66762;BME280;53672;48.176;16.338;2022-10-15T21:37:33;99323.97;;;12.15;100.00
66762;BME280;53672;48.176;16.338;2022-10-15T21:42:34;99318.31;;;12.12;100.00
66762;BME280;53672;48.176;16.338;2022-10-15T21:47:36;99326.47;;;12.07;100.00
66762;BME280;53672;48.176;16.338;2022-10-15T21:52:36;99331.63;;;12.03;100.00
66762;BME280;53672;48.176;16.338;2022-10-15T21:57:37;99344.91;;;12.00;100.00
66762;BME280;53672;48.176;16.338;2022-10-15T22:02:38;99344.63;;;12.01;100.00
66762;BME280;53672;48.176;16.338;2022-10-15T22:07:39;99340.53;;;12.04;100.00
66762;BME280;53672;48.176;16.338;2022-10-15T22:12:39;99338.66;;;12.04;100.00
66762;BME280;53672;48.176;16.338;2022-10-15T22:17:41;99342.75;;;11.97;100.00
66762;BME280;53672;48.176;16.338;2022-10-15T22:22:42;99359.81;;;11.92;100.00
66762;BME280;53672;48.176;16.338;2022-10-15T22:27:42;99348.81;;;11.84;100.00
66762;BME280;53672;48.176;16.338;2022-10-15T22:32:44;99354.78;;;11.81;100.00
66762;BME280;53672;48.176;16.338;2022-10-15T22:37:44;99353.50;;;11.73;100.00
66762;BME280;53672;48.176;16.338;2022-10-15T22:42:45;99354.56;;;11.72;100.00
66762;BME280;53672;48.176;16.338;2022-10-15T22:47:47;99351.34;;;11.70;100.00
66762;BME280;53672;48.176;16.338;2022-10-15T22:52:47;99362.16;;;11.65;100.00
66762;BME280;53672;48.176;16.338;2022-10-15T22:57:48;99369.53;;;11.54;100.00
66762;BME280;53672;48.176;16.338;2022-10-15T23:02:49;99357.41;;;11.52;100.00
66762;BME280;53672;48.176;16.338;2022-10-15T23:07:50;99360.63;;;11.54;100.00
66762;BME280;53672;48.176;16.338;2022-10-15T23:12:50;99370.38;;;11.50;100.00
66762;BME280;53672;48.176;16.338;2022-10-15T23:17:52;99372.78;;;11.51;100.00
66762;BME280;53672;48.176;16.338;2022-10-15T23:22:54;99376.28;;;11.52;100.00
66762;BME280;53672;48.176;16.338;2022-10-15T23:27:54;99376.53;;;11.55;100.00
66762;BME280;53672;48.176;16.338;2022-10-15T23:32:56;99375.97;;;11.58;100.00
66762;BME280;53672;48.176;16.338;2022-10-15T23:37:56;99376.78;;;11.59;100.00
66762;BME280;53672;48.176;16.338;2022-10-15T23:42:57;99377.59;;;11.59;100.00
66762;BME280;53672;48.176;16.338;2022-10-15T23:47:59;99370.81;;;11.62;100.00
66762;BME280;53672;48.176;16.338;2022-10-15T23:52:59;99383.25;;;11.63;100.00
66762;BME280;53672;48.176;16.338;2022-10-15T23:58:00;99383.75;;;11.65;100.00
